Time;durP1;ratioP1;P1;durP2;ratioP2;P2;SDS_P1;SDS_P2;PMS_P1;PMS_P2;Temp;Humidity;BMP_temperature;BMP_pressure;BME280_temperature;BME280_humidity;BME280_pressure;Samples;Min_cycle;Max_cycle;Signal;HPM_P1;HPM_P2
2023/08/11 00:00:51;;;;;;;1999.90;999.90;;;15.80;99.90;;;;;;5075747;28;20044;-68
2023/08/11 00:03:16;;;;;;;1999.90;999.90;;;15.70;99.90;;;;;;5083597;28;20048;-68
2023/08/11 00:05:42;;;;;;;1999.90;999.90;;;15.60;99.90;;;;;;5084647;28;20430;-68
2023/08/11 00:08:08;;;;;;;1999.90;999.90;;;15.60;99.90;;;;;;5096608;28;20052;-68
2023/08/11 00:10:35;;;;;;;1999.90;999.90;;;15.50;99.90;;;;;;5091858;28;20051;-68
2023/08/11 00:13:01;;;;;;;1999.90;999.90;;;15.40;99.90;;;;;;5085867;28;20048;-68
2023/08/11 00:15:31;;;;;;;1999.90;999.90;;;15.30;99.90;;;;;;5104935;28;20828;-68
2023/08/11 00:18:02;;;;;;;1999.90;999.90;;;15.30;99.90;;;;;;5079317;28;20126;-69
2023/08/11 00:20:28;;;;;;;1999.90;999.90;;;15.20;99.90;;;;;;5089449;28;20399;-68
2023/08/11 00:22:54;;;;;;;1999.90;999.90;;;15.20;99.90;;;;;;5076236;28;20131;-68
2023/08/11 00:25:21;;;;;;;1999.90;999.90;;;15.10;99.90;;;;;;5075372;28;20040;-68
2023/08/11 00:27:47;;;;;;;1999.90;999.90;;;15.00;99.90;;;;;;5089054;28;20055;-68
2023/08/11 00:30:13;;;;;;;1999.90;999.90;;;15.00;99.90;;;;;;5089482;28;20040;-68
2023/08/11 00:32:38;;;;;;;1999.90;999.90;;;14.90;99.90;;;;;;5085711;28;20079;-68
2023/08/11 00:35:05;;;;;;;1999.90;999.90;;;14.90;99.90;;;;;;5101107;28;20518;-68
2023/08/11 00:37:31;;;;;;;1999.90;999.90;;;14.80;99.90;;;;;;5089222;28;20040;-68
2023/08/11 00:39:58;;;;;;;1999.90;999.90;;;14.80;99.90;;;;;;5063890;28;20080;-68
2023/08/11 00:42:24;;;;;;;1999.90;999.90;;;14.70;99.90;;;;;;5088319;28;20377;-68
2023/08/11 00:44:49;;;;;;;1999.90;999.90;;;14.70;99.90;;;;;;5070152;28;20044;-68
2023/08/11 00:47:16;;;;;;;1999.90;999.90;;;14.70;99.90;;;;;;5097483;28;20388;-68
2023/08/11 00:49:42;;;;;;;1999.90;999.90;;;14.70;99.90;;;;;;5080758;28;20048;-68
2023/08/11 00:52:08;;;;;;;1999.90;999.90;;;14.70;99.90;;;;;;5082033;28;20047;-68
2023/08/11 00:54:33;;;;;;;1999.90;999.90;;;14.70;99.90;;;;;;5099780;28;20032;-68
2023/08/11 00:56:59;;;;;;;1999.90;999.90;;;14.60;99.90;;;;;;5078351;28;20036;-68
2023/08/11 00:59:25;;;;;;;1999.90;999.90;;;14.60;99.90;;;;;;5085890;28;20117;-68
2023/08/11 01:01:51;;;;;;;1999.90;999.90;;;14.50;99.90;;;;;;5090282;28;20048;-68
2023/08/11 01:04:17;;;;;;;1999.90;999.90;;;14.50;99.90;;;;;;5088174;28;20047;-68
2023/08/11 01:07:02;;;;;;;1999.90;999.90;;;14.50;99.90;;;;;;5080353;28;20076;-68
2023/08/11 01:09:46;;;;;;;1999.90;999.90;;;14.50;99.90;;;;;;5089408;28;20048;-68
2023/08/11 01:12:51;;;;;;;1999.90;999.90;;;14.40;99.90;;;;;;5085679;28;20043;-68
2023/08/11 01:15:19;;;;;;;1999.90;999.90;;;14.40;99.90;;;;;;5045551;28;20041;-68
2023/08/11 01:17:47;;;;;;;1999.90;999.90;;;14.40;99.90;;;;;;5030574;28;20404;-68
2023/08/11 01:20:16;;;;;;;1999.90;999.90;;;14.40;99.90;;;;;;5029811;28;20040;-68
2023/08/11 01:22:48;;;;;;;1999.90;999.90;;;14.30;99.90;;;;;;5010201;28;20045;-68
2023/08/11 01:25:15;;;;;;;1999.90;999.90;;;14.30;99.90;;;;;;5045084;28;20059;-68
2023/08/11 01:27:52;;;;;;;1999.90;999.90;;;14.20;99.90;;;;;;5046896;28;20443;-68
2023/08/11 01:30:18;;;;;;;1999.90;999.90;;;14.20;99.90;;;;;;5029879;28;20048;-68
2023/08/11 01:32:45;;;;;;;1999.90;999.90;;;14.10;99.90;;;;;;5040779;28;20075;-68
2023/08/11 01:35:10;;;;;;;1999.90;999.90;;;14.10;99.90;;;;;;5029775;28;20052;-68
2023/08/11 01:37:36;;;;;;;1999.90;999.90;;;14.10;99.90;;;;;;5027675;28;20421;-68
2023/08/11 01:40:10;;;;;;;1999.90;999.90;;;14.10;99.90;;;;;;5045909;28;20412;-69
2023/08/11 01:42:38;;;;;;;1999.90;999.90;;;14.10;99.90;;;;;;5026930;28;20048;-68
2023/08/11 01:45:06;;;;;;;1999.90;999.90;;;14.10;99.90;;;;;;5045183;28;20057;-69
2023/08/11 01:47:31;;;;;;;1999.90;999.90;;;14.10;99.90;;;;;;5026526;28;20048;-68
2023/08/11 01:49:58;;;;;;;1999.90;999.90;;;14.10;99.90;;;;;;5035153;28;20412;-68
2023/08/11 01:52:24;;;;;;;1999.90;999.90;;;14.10;99.90;;;;;;5089649;28;20038;-69
2023/08/11 01:54:50;;;;;;;1999.90;999.90;;;14.10;99.90;;;;;;5083314;28;20503;-68
2023/08/11 01:57:17;;;;;;;1999.90;999.90;;;14.00;99.90;;;;;;5077229;28;20127;-68
2023/08/11 01:59:43;;;;;;;1999.90;999.90;;;14.00;99.90;;;;;;5078309;28;20393;-68
2023/08/11 02:02:08;;;;;;;1999.90;999.90;;;14.10;99.90;;;;;;5096642;28;20056;-68
2023/08/11 02:04:34;;;;;;;1999.90;999.90;;;14.00;99.90;;;;;;5100897;28;20073;-68
2023/08/11 02:06:59;;;;;;;1999.90;999.90;;;14.00;99.90;;;;;;5086584;28;20151;-68
2023/08/11 02:09:25;;;;;;;1999.90;999.90;;;14.00;99.90;;;;;;5087085;28;20063;-68
2023/08/11 02:11:51;;;;;;;1999.90;999.90;;;14.00;99.90;;;;;;5070892;28;20031;-68
2023/08/11 02:14:17;;;;;;;1999.90;999.90;;;14.00;99.90;;;;;;5086654;28;20393;-68
2023/08/11 02:16:43;;;;;;;1999.90;999.90;;;14.10;99.90;;;;;;5064469;28;20047;-68
2023/08/11 02:19:08;;;;;;;1999.90;999.90;;;14.00;99.90;;;;;;5074530;28;20040;-68
2023/08/11 02:21:37;;;;;;;1999.90;999.90;;;14.00;99.90;;;;;;5086345;28;20098;-68
2023/08/11 02:24:03;;;;;;;1999.90;999.90;;;14.00;99.90;;;;;;5064909;28;20523;-68
2023/08/11 02:26:29;;;;;;;1999.90;999.90;;;14.00;99.90;;;;;;5077813;28;20098;-68
2023/08/11 02:28:54;;;;;;;1999.90;999.90;;;14.00;99.90;;;;;;5084456;28;20561;-68
2023/08/11 02:31:20;;;;;;;1999.90;999.90;;;14.00;99.90;;;;;;5081218;28;20028;-68
2023/08/11 02:33:46;;;;;;;1999.90;999.90;;;14.00;99.90;;;;;;5088553;28;20032;-68
2023/08/11 02:36:13;;;;;;;1999.90;999.90;;;13.90;99.90;;;;;;5077079;28;20483;-68
2023/08/11 02:38:39;;;;;;;1999.90;999.90;;;14.00;99.90;;;;;;5086118;28;20044;-68
2023/08/11 02:41:05;;;;;;;1999.90;999.90;;;14.00;99.90;;;;;;5086203;28;20047;-68
2023/08/11 02:43:31;;;;;;;1999.90;999.90;;;14.10;99.90;;;;;;5065465;28;20035;-68
2023/08/11 02:45:56;;;;;;;1999.90;999.90;;;14.00;99.90;;;;;;5102015;28;20130;-68
2023/08/11 02:48:22;;;;;;;1999.90;999.90;;;14.00;99.90;;;;;;5096314;28;20104;-68
2023/08/11 02:50:48;;;;;;;1999.90;999.90;;;14.00;99.90;;;;;;5091633;28;20097;-68
2023/08/11 02:53:14;;;;;;;1999.90;999.90;;;14.00;99.90;;;;;;5064750;28;20289;-68
2023/08/11 02:55:40;;;;;;;1999.90;999.90;;;14.00;99.90;;;;;;5078342;28;20040;-68
2023/08/11 02:58:05;;;;;;;1999.90;999.90;;;14.00;99.90;;;;;;5068990;28;20043;-68
2023/08/11 03:00:33;;;;;;;1999.90;999.90;;;14.00;99.90;;;;;;5078184;28;20035;-68
2023/08/11 03:02:58;;;;;;;1999.90;999.90;;;14.00;99.90;;;;;;5063710;28;20043;-68
2023/08/11 03:05:24;;;;;;;1999.90;999.90;;;13.90;99.90;;;;;;5086373;28;20060;-67
2023/08/11 03:07:50;;;;;;;1999.90;999.90;;;13.90;99.90;;;;;;5069212;28;20070;-68
2023/08/11 03:10:16;;;;;;;1999.90;999.90;;;14.00;99.90;;;;;;5069556;28;20039;-68
2023/08/11 03:12:41;;;;;;;1999.90;999.90;;;14.00;99.90;;;;;;5076955;28;20968;-68
2023/08/11 03:15:08;;;;;;;1999.90;999.90;;;14.00;99.90;;;;;;5103347;28;20052;-68
2023/08/11 03:17:35;;;;;;;1999.90;999.90;;;14.00;99.90;;;;;;5086057;28;20118;-68
2023/08/11 03:20:01;;;;;;;1999.90;999.90;;;14.00;99.90;;;;;;5080638;28;20059;-68
2023/08/11 03:22:27;;;;;;;1999.90;999.90;;;14.00;99.90;;;;;;5089168;28;20474;-68
2023/08/11 03:24:53;;;;;;;1999.90;999.90;;;14.00;99.90;;;;;;5102969;28;20075;-68
2023/08/11 03:27:18;;;;;;;1999.90;999.90;;;14.00;99.90;;;;;;5077168;28;21077;-67
2023/08/11 03:29:44;;;;;;;1999.90;999.90;;;13.90;99.90;;;;;;5082671;28;20047;-68
2023/08/11 03:32:10;;;;;;;1999.90;999.90;;;13.90;99.90;;;;;;5084492;28;20505;-68
2023/08/11 03:34:37;;;;;;;1999.90;999.90;;;13.90;99.90;;;;;;5083995;28;20038;-68
2023/08/11 03:37:03;;;;;;;1999.90;999.90;;;13.80;99.90;;;;;;5084666;28;20157;-68
2023/08/11 03:39:28;;;;;;;1999.90;999.90;;;13.80;99.90;;;;;;5083739;28;20416;-68
2023/08/11 03:41:54;;;;;;;1999.90;999.90;;;13.90;99.90;;;;;;5085854;28;20051;-68
2023/08/11 03:44:19;;;;;;;1999.90;999.90;;;13.80;99.90;;;;;;5080860;28;20051;-68
2023/08/11 03:46:45;;;;;;;1999.90;999.90;;;13.80;99.90;;;;;;5088572;28;20090;-68
2023/08/11 03:49:11;;;;;;;1999.90;999.90;;;13.80;99.90;;;;;;5074838;28;20132;-68
2023/08/11 03:51:37;;;;;;;1999.90;999.90;;;13.70;99.90;;;;;;5083420;28;20093;-68
2023/08/11 03:54:03;;;;;;;1999.90;999.90;;;13.70;99.90;;;;;;5067456;28;20040;-68
2023/08/11 03:56:29;;;;;;;1999.90;999.90;;;13.70;99.90;;;;;;5096597;28;20037;-68
2023/08/11 03:58:55;;;;;;;1999.90;999.90;;;13.70;99.90;;;;;;5080043;28;20138;-68
2023/08/11 04:01:20;;;;;;;1999.90;999.90;;;13.70;99.90;;;;;;5097247;28;20123;-68
2023/08/11 04:03:47;;;;;;;1999.90;999.90;;;13.70;99.90;;;;;;5094562;28;20048;-68
2023/08/11 04:06:12;;;;;;;1999.90;999.90;;;13.70;99.90;;;;;;5088449;28;20492;-68
2023/08/11 04:08:38;;;;;;;1999.90;999.90;;;13.60;99.90;;;;;;5082272;28;20054;-68
2023/08/11 04:11:03;;;;;;;1999.90;999.90;;;13.60;99.90;;;;;;5085282;28;20039;-68
2023/08/11 04:13:29;;;;;;;1999.90;999.90;;;13.70;99.90;;;;;;5084055;28;20392;-68
2023/08/11 04:15:55;;;;;;;1999.90;999.90;;;13.70;99.90;;;;;;5086683;28;20055;-68
2023/08/11 04:18:20;;;;;;;1999.90;999.90;;;13.70;99.90;;;;;;5078475;28;20045;-69
2023/08/11 04:20:47;;;;;;;1999.90;999.90;;;13.80;99.90;;;;;;5083705;28;20040;-68
2023/08/11 04:23:13;;;;;;;1999.90;999.90;;;13.80;99.90;;;;;;5069172;28;20123;-67
2023/08/11 04:25:39;;;;;;;1999.90;999.90;;;13.80;99.90;;;;;;5088190;28;20161;-68
2023/08/11 04:28:05;;;;;;;1999.90;999.90;;;13.90;99.90;;;;;;5083237;28;20040;-68
2023/08/11 04:30:30;;;;;;;1999.90;999.90;;;13.90;99.90;;;;;;5068154;28;20542;-68
2023/08/11 04:32:57;;;;;;;1999.90;999.90;;;13.90;99.90;;;;;;5084819;28;20066;-68
2023/08/11 04:35:22;;;;;;;1999.90;999.90;;;13.90;99.90;;;;;;5080765;28;20078;-68
2023/08/11 04:37:48;;;;;;;1999.90;999.90;;;14.00;99.90;;;;;;5068099;28;20756;-68
2023/08/11 04:40:14;;;;;;;1999.90;999.90;;;14.00;99.90;;;;;;5085493;28;20500;-68
2023/08/11 04:42:43;;;;;;;1999.90;999.90;;;14.10;99.90;;;;;;5085331;28;20044;-68
2023/08/11 04:45:10;;;;;;;1999.90;999.90;;;14.10;99.90;;;;;;5082584;28;20048;-68
2023/08/11 04:47:36;;;;;;;1999.90;999.90;;;14.10;99.90;;;;;;5072848;28;20063;-68
2023/08/11 04:50:02;;;;;;;1999.90;999.90;;;14.20;99.90;;;;;;5068703;28;20456;-68
2023/08/11 04:52:27;;;;;;;1999.90;999.90;;;14.20;99.90;;;;;;5083634;28;20039;-68
2023/08/11 04:54:53;;;;;;;1999.90;999.90;;;14.30;99.90;;;;;;5087788;28;20495;-68
2023/08/11 04:57:19;;;;;;;1999.90;999.90;;;14.30;99.90;;;;;;5088992;28;20456;-68
2023/08/11 04:59:46;;;;;;;1999.90;999.90;;;14.30;99.90;;;;;;5096132;28;20048;-68
2023/08/11 05:02:12;;;;;;;1999.90;999.90;;;14.40;99.90;;;;;;5086236;28;20047;-68
2023/08/11 05:04:38;;;;;;;1999.90;999.90;;;14.40;99.90;;;;;;5084914;28;20084;-68
2023/08/11 05:07:06;;;;;;;1999.90;999.90;;;14.50;99.90;;;;;;5079563;28;20132;-68
2023/08/11 05:09:33;;;;;;;1999.90;999.90;;;14.60;99.90;;;;;;5080525;28;20052;-68
2023/08/11 05:11:59;;;;;;;1999.90;999.90;;;14.70;99.90;;;;;;5069995;28;20089;-68
2023/08/11 05:14:24;;;;;;;1999.90;999.90;;;14.80;99.90;;;;;;5086626;28;20036;-68
2023/08/11 05:16:50;;;;;;;1999.90;999.90;;;14.80;99.90;;;;;;5091430;28;20040;-68
2023/08/11 05:19:15;;;;;;;1999.90;999.90;;;14.90;99.90;;;;;;5094709;28;20036;-68
2023/08/11 05:21:42;;;;;;;1999.90;999.90;;;15.00;99.90;;;;;;5095686;28;20044;-68
2023/08/11 05:24:07;;;;;;;1999.90;999.90;;;15.00;99.90;;;;;;5066856;28;20379;-68
2023/08/11 05:26:33;;;;;;;1999.90;999.90;;;15.10;99.90;;;;;;5088631;28;20036;-68
2023/08/11 05:28:59;;;;;;;1999.90;999.90;;;15.20;99.90;;;;;;5094307;28;20044;-68
2023/08/11 05:31:25;;;;;;;1999.90;999.90;;;15.20;99.90;;;;;;5088888;28;20071;-68
2023/08/11 05:33:52;;;;;;;1999.90;999.90;;;15.30;99.90;;;;;;5095551;28;20048;-68
2023/08/11 05:36:18;;;;;;;1999.90;999.90;;;15.40;99.90;;;;;;5087302;28;20055;-68
2023/08/11 05:38:44;;;;;;;1999.90;999.90;;;15.50;99.90;;;;;;5089739;28;20051;-68
2023/08/11 05:41:10;;;;;;;1999.90;999.90;;;15.60;99.90;;;;;;5071273;28;20069;-68
2023/08/11 05:43:36;;;;;;;1999.90;999.90;;;15.70;99.90;;;;;;5085378;28;20040;-67
2023/08/11 05:46:03;;;;;;;1999.90;999.90;;;15.80;99.90;;;;;;5088740;28;20058;-68
2023/08/11 05:48:29;;;;;;;1999.90;999.90;;;16.00;99.90;;;;;;5083364;28;20043;-68
2023/08/11 05:50:54;;;;;;;1999.90;999.90;;;16.20;99.90;;;;;;5071243;28;20506;-68
2023/08/11 05:53:20;;;;;;;1999.90;999.90;;;16.40;99.90;;;;;;5080456;28;20071;-68
2023/08/11 05:55:46;;;;;;;1999.90;999.90;;;16.50;99.90;;;;;;5086041;28;20043;-68
2023/08/11 05:58:11;;;;;;;1999.90;999.90;;;16.50;99.90;;;;;;5067403;28;20036;-68
2023/08/11 06:00:37;;;;;;;1999.90;999.90;;;16.60;99.90;;;;;;5098446;28;20040;-68
2023/08/11 06:03:03;;;;;;;1999.90;999.90;;;16.60;99.90;;;;;;5082240;28;20115;-68
2023/08/11 06:05:28;;;;;;;1999.90;999.90;;;16.70;99.90;;;;;;5086276;28;20048;-68
2023/08/11 06:07:54;;;;;;;1999.90;999.90;;;16.80;99.90;;;;;;5104836;28;20454;-68
2023/08/11 06:10:19;;;;;;;1999.90;999.90;;;16.80;99.90;;;;;;5106629;27;20502;-68
2023/08/11 06:12:45;;;;;;;1999.90;999.90;;;16.90;99.90;;;;;;5066171;28;20040;-68
2023/08/11 06:15:11;;;;;;;1999.90;999.90;;;17.00;99.90;;;;;;5082142;28;20074;-68
2023/08/11 06:17:37;;;;;;;1999.90;999.90;;;17.00;99.90;;;;;;5078649;28;20060;-68
2023/08/11 06:20:04;;;;;;;1999.90;999.90;;;17.10;99.90;;;;;;5102960;28;20048;-68
2023/08/11 06:22:31;;;;;;;1999.90;999.90;;;17.20;99.90;;;;;;5092451;28;20101;-68
2023/08/11 06:24:56;;;;;;;1999.90;999.90;;;17.30;99.90;;;;;;5081472;28;20047;-68
2023/08/11 06:27:22;;;;;;;1999.90;999.90;;;17.40;99.90;;;;;;5100571;28;20419;-68
2023/08/11 06:29:48;;;;;;;1999.90;999.90;;;17.70;99.90;;;;;;5070903;28;20044;-68
2023/08/11 06:32:13;;;;;;;1999.90;999.90;;;17.90;99.90;;;;;;5087399;28;20416;-68
2023/08/11 06:34:39;;;;;;;1999.90;999.90;;;18.00;99.90;;;;;;5069803;28;20128;-68
2023/08/11 06:37:04;;;;;;;1999.90;999.90;;;18.20;99.90;;;;;;5087357;28;20040;-68
2023/08/11 06:39:30;;;;;;;1999.90;999.90;;;18.40;99.90;;;;;;5084012;28;20044;-68
2023/08/11 06:41:56;;;;;;;1999.90;999.90;;;18.40;99.90;;;;;;5083304;28;20051;-67
2023/08/11 06:44:21;;;;;;;1999.90;999.90;;;18.40;99.90;;;;;;5077694;28;20085;-68
2023/08/11 06:46:47;;;;;;;1999.90;999.90;;;18.40;99.90;;;;;;5070496;28;20050;-68
2023/08/11 06:49:12;;;;;;;1999.90;999.90;;;18.50;99.90;;;;;;5101069;28;20040;-67
2023/08/11 06:51:38;;;;;;;1999.90;999.90;;;18.70;99.90;;;;;;5086273;28;20039;-68
2023/08/11 06:54:04;;;;;;;1999.90;999.90;;;18.70;99.90;;;;;;5091087;28;20067;-68
2023/08/11 06:56:29;;;;;;;1999.90;999.90;;;19.00;99.90;;;;;;5080341;28;20051;-68
2023/08/11 06:58:55;;;;;;;1999.90;999.90;;;19.80;99.90;;;;;;5071910;28;20047;-68
2023/08/11 07:01:20;;;;;;;1999.90;999.90;;;20.80;99.90;;;;;;5063880;28;20456;-68
2023/08/11 07:03:46;;;;;;;1999.90;999.90;;;21.80;99.90;;;;;;5087651;28;20051;-68
2023/08/11 07:06:12;;;;;;;1999.90;999.90;;;22.60;99.90;;;;;;5100321;28;20158;-68
2023/08/11 07:08:39;;;;;;;361.80;344.13;;;23.30;99.90;;;;;;5092993;28;20519;-70
2023/08/11 07:11:04;;;;;;;533.28;504.38;;;23.30;99.90;;;;;;5101055;28;20048;-70
2023/08/11 07:13:30;;;;;;;398.63;378.00;;;23.10;99.90;;;;;;5086441;28;20035;-68
2023/08/11 07:15:56;;;;;;;477.70;453.25;;;23.50;99.90;;;;;;5086116;28;20403;-68
2023/08/11 07:18:22;;;;;;;489.52;464.20;;;23.80;99.90;;;;;;5079968;28;20044;-68
2023/08/11 07:20:48;;;;;;;481.10;456.15;;;23.60;99.90;;;;;;5086515;28;20036;-68
2023/08/11 07:23:13;;;;;;;469.83;446.00;;;23.30;99.90;;;;;;5086450;28;20065;-68
2023/08/11 07:25:39;;;;;;;496.58;470.33;;;22.70;99.90;;;;;;5093261;28;20052;-68
2023/08/11 07:28:05;;;;;;;484.30;459.20;;;22.20;99.90;;;;;;5091902;28;20528;-68
2023/08/11 07:30:31;;;;;;;534.80;506.08;;;21.90;99.90;;;;;;5069376;28;20503;-68
2023/08/11 07:32:57;;;;;;;455.10;431.80;;;21.60;99.90;;;;;;5081508;28;20144;-68
2023/08/11 07:35:24;;;;;;;477.95;453.25;;;21.50;99.90;;;;;;5068815;28;20040;-70
2023/08/11 07:37:49;;;;;;;430.13;408.77;;;21.50;99.90;;;;;;5065615;28;20047;-68
2023/08/11 07:40:16;;;;;;;453.35;430.25;;;21.40;99.90;;;;;;5080922;28;20044;-68
2023/08/11 07:42:42;;;;;;;462.65;438.88;;;21.20;99.90;;;;;;5083471;28;20055;-68
2023/08/11 07:45:08;;;;;;;487.23;461.92;;;21.20;99.90;;;;;;5086220;28;20488;-68
2023/08/11 07:47:34;;;;;;;451.98;428.75;;;21.20;99.90;;;;;;5080783;28;20040;-68
2023/08/11 07:49:59;;;;;;;482.00;456.65;;;21.20;99.90;;;;;;5086847;28;20055;-68
2023/08/11 07:52:25;;;;;;;462.73;438.83;;;21.20;99.90;;;;;;5098849;28;20043;-68
2023/08/11 07:54:51;;;;;;;432.23;410.52;;;21.30;99.90;;;;;;5084909;28;20043;-68
2023/08/11 07:57:16;;;;;;;423.67;401.88;;;21.30;99.90;;;;;;5091096;28;20036;-68
2023/08/11 07:59:42;;;;;;;396.75;376.90;;;21.40;99.90;;;;;;5089787;28;20053;-68
2023/08/11 08:02:08;;;;;;;446.58;424.00;;;21.50;99.90;;;;;;5085435;28;20147;-68
2023/08/11 08:04:33;;;;;;;483.83;458.90;;;21.50;99.90;;;;;;5084560;28;20070;-68
2023/08/11 08:06:59;;;;;;;431.70;409.73;;;21.60;99.90;;;;;;5079169;28;20056;-67
2023/08/11 08:09:25;;;;;;;448.15;425.33;;;21.60;99.90;;;;;;5084834;28;20043;-68
2023/08/11 08:11:51;;;;;;;410.52;389.45;;;21.70;99.90;;;;;;5086307;28;20067;-67
2023/08/11 08:14:17;;;;;;;447.52;424.70;;;21.70;99.90;;;;;;5084755;28;20048;-68
2023/08/11 08:16:44;;;;;;;471.20;447.35;;;21.80;99.90;;;;;;5084327;28;20149;-67
2023/08/11 08:19:11;;;;;;;435.35;413.40;;;21.90;99.90;;;;;;5091102;28;20134;-67
2023/08/11 08:21:37;;;;;;;399.02;378.90;;;21.80;99.90;;;;;;5094536;28;20491;-67
2023/08/11 08:24:04;;;;;;;430.70;408.67;;;21.90;99.90;;;;;;5086124;28;20063;-68
2023/08/11 08:26:31;;;;;;;424.38;403.00;;;22.00;99.90;;;;;;5081980;28;20069;-68
2023/08/11 08:28:56;;;;;;;406.95;386.80;;;22.10;99.90;;;;;;5088975;28;20044;-68
2023/08/11 08:31:22;;;;;;;343.85;327.58;;;22.20;99.90;;;;;;5072138;28;20448;-68
2023/08/11 08:33:48;;;;;;;201.20;192.32;;;22.30;99.90;;;;;;5072522;28;20040;-68
2023/08/11 08:36:13;;;;;;;282.85;269.65;;;22.30;99.90;;;;;;5083732;28;20036;-68
2023/08/11 08:38:39;;;;;;;261.27;249.65;;;22.30;99.90;;;;;;5091982;28;20047;-68
2023/08/11 08:41:08;;;;;;;236.52;225.65;;;22.40;99.90;;;;;;5091072;28;20054;-68
2023/08/11 08:43:35;;;;;;;298.83;285.08;;;22.40;99.90;;;;;;5070123;28;20832;-68
2023/08/11 08:46:03;;;;;;;175.07;167.27;;;22.60;99.90;;;;;;5088427;28;20040;-68
2023/08/11 08:48:37;;;;;;;275.40;262.88;;;22.70;99.90;;;;;;5089128;28;20044;-67
2023/08/11 08:51:03;;;;;;;319.42;303.83;;;22.80;99.90;;;;;;5079985;28;20075;-68
2023/08/11 08:53:29;;;;;;;232.82;222.57;;;23.40;99.90;;;;;;5089825;28;20111;-68
2023/08/11 08:55:56;;;;;;;138.48;132.30;;;24.40;99.90;;;;;;5087248;28;20905;-68
2023/08/11 08:58:21;;;;;;;63.15;60.17;;;25.30;99.90;;;;;;5088752;28;20078;-68
2023/08/11 09:00:47;;;;;;;199.38;190.45;;;25.90;99.90;;;;;;5065143;28;20146;-69
2023/08/11 09:03:13;;;;;;;128.40;122.70;;;26.40;99.90;;;;;;5071110;28;20118;-69
2023/08/11 09:05:38;;;;;;;108.43;103.30;;;26.70;99.90;;;;;;5070943;28;20059;-68
2023/08/11 09:08:05;;;;;;;137.98;131.55;;;26.90;99.90;;;;;;5073190;28;21055;-68
2023/08/11 09:10:32;;;;;;;80.38;76.45;;;27.30;99.90;;;;;;5060733;28;20043;-68
2023/08/11 09:12:58;;;;;;;72.90;69.43;;;27.60;99.90;;;;;;5072401;28;20418;-68
2023/08/11 09:15:24;;;;;;;98.35;93.97;;;27.70;99.90;;;;;;5083293;28;20092;-68
2023/08/11 09:17:50;;;;;;;111.93;106.88;;;27.80;99.90;;;;;;5072454;28;20480;-68
2023/08/11 09:20:17;;;;;;;109.38;104.47;;;27.80;99.90;;;;;;5098642;28;20502;-69
2023/08/11 09:22:43;;;;;;;121.60;115.90;;;28.10;99.90;;;;;;5081901;28;20052;-68
2023/08/11 09:25:10;;;;;;;236.77;226.00;;;28.30;99.90;;;;;;5100811;27;20040;-68
2023/08/11 09:27:36;;;;;;;284.67;271.60;;;28.50;99.90;;;;;;5081813;28;20051;-68
2023/08/11 09:30:03;;;;;;;311.88;297.50;;;28.50;99.90;;;;;;5089940;28;20056;-68
2023/08/11 09:32:32;;;;;;;112.07;106.95;;;28.50;99.90;;;;;;5088657;28;20046;-68
2023/08/11 09:35:07;;;;;;;346.00;329.13;;;28.50;99.90;;;;;;5084398;28;20036;-68
2023/08/11 09:37:33;;;;;;;187.07;178.50;;;28.60;99.50;;;;;;5086974;28;20123;-68
2023/08/11 09:40:03;;;;;;;222.05;211.88;;;28.60;99.90;;;;;;5077140;28;20618;-68
2023/08/11 09:42:29;;;;;;;282.70;269.17;;;28.60;99.90;;;;;;5088833;28;20050;-69
2023/08/11 09:44:55;;;;;;;382.50;363.90;;;28.60;99.90;;;;;;5102233;28;20407;-68
2023/08/11 09:47:20;;;;;;;358.55;341.33;;;28.40;99.40;;;;;;5054878;28;20039;-68
2023/08/11 09:49:46;;;;;;;375.77;357.30;;;28.30;99.60;;;;;;5076062;28;20051;-68
2023/08/11 09:52:12;;;;;;;385.00;366.17;;;28.30;99.90;;;;;;5083002;28;20062;-68
2023/08/11 09:54:41;;;;;;;385.63;366.45;;;28.40;99.40;;;;;;5085390;28;20534;-68
2023/08/11 09:57:07;;;;;;;401.73;381.80;;;28.40;99.90;;;;;;5083216;28;20040;-68
2023/08/11 09:59:34;;;;;;;344.50;327.65;;;28.30;98.60;;;;;;5075132;28;20040;-68
2023/08/11 10:02:02;;;;;;;426.13;404.65;;;28.10;99.90;;;;;;5086970;28;20055;-68
2023/08/11 10:04:58;;;;;;;396.80;376.73;;;27.90;99.30;;;;;;5087965;28;20194;-68
2023/08/11 10:07:33;;;;;;;447.05;424.30;;;27.90;99.90;;;;;;5082787;28;20059;-68
2023/08/11 10:10:00;;;;;;;419.02;397.92;;;28.00;98.70;;;;;;5081991;28;20040;-68
2023/08/11 10:12:27;;;;;;;439.73;417.10;;;28.10;98.90;;;;;;5088022;28;20503;-68
2023/08/11 10:14:53;;;;;;;447.83;424.40;;;28.10;98.80;;;;;;5085652;28;20472;-68
2023/08/11 10:17:19;;;;;;;402.25;381.65;;;28.20;99.10;;;;;;5081579;28;20047;-67
2023/08/11 10:19:45;;;;;;;440.90;418.50;;;28.20;98.50;;;;;;5085799;28;20043;-68
2023/08/11 10:22:11;;;;;;;414.02;392.98;;;28.10;98.50;;;;;;5088630;28;20523;-68
2023/08/11 10:24:37;;;;;;;433.55;411.58;;;28.00;99.40;;;;;;5103290;28;20059;-68
2023/08/11 10:27:05;;;;;;;420.70;399.20;;;28.10;98.90;;;;;;5084192;28;20118;-68
2023/08/11 10:29:31;;;;;;;385.15;365.63;;;28.20;98.90;;;;;;5086671;28;20123;-68
2023/08/11 10:31:58;;;;;;;423.02;401.52;;;28.30;99.40;;;;;;5103857;28;20096;-67
2023/08/11 10:34:25;;;;;;;448.92;425.70;;;28.50;98.90;;;;;;5085086;28;20515;-68
2023/08/11 10:36:56;;;;;;;451.58;428.05;;;28.60;97.10;;;;;;5086585;28;20046;-68
2023/08/11 10:39:21;;;;;;;464.48;440.50;;;28.30;97.40;;;;;;5078093;28;20069;-68
2023/08/11 10:41:48;;;;;;;443.58;420.98;;;28.00;96.90;;;;;;5088174;28;20107;-68
2023/08/11 10:44:19;;;;;;;451.85;428.42;;;27.80;97.10;;;;;;5084848;28;20084;-68
2023/08/11 10:46:46;;;;;;;423.55;401.75;;;27.80;98.20;;;;;;5084409;28;20047;-68
2023/08/11 10:49:15;;;;;;;440.02;417.25;;;27.90;98.20;;;;;;5079219;28;20052;-68
2023/08/11 10:51:41;;;;;;;369.40;350.92;;;27.90;98.60;;;;;;5063083;28;20478;-68
2023/08/11 10:54:09;;;;;;;418.27;396.90;;;28.00;98.90;;;;;;5085413;28;20567;-68
2023/08/11 10:56:43;;;;;;;402.60;382.05;;;28.20;98.50;;;;;;5069026;28;20059;-68
2023/08/11 10:59:24;;;;;;;272.50;259.63;;;28.50;98.40;;;;;;5067001;28;20052;-68
2023/08/11 11:01:52;;;;;;;331.15;314.88;;;28.70;98.80;;;;;;5077466;28;20028;-67
2023/08/11 11:04:21;;;;;;;410.40;389.73;;;28.90;98.20;;;;;;5081328;28;20067;-68
2023/08/11 11:06:49;;;;;;;408.63;387.83;;;28.90;97.40;;;;;;5083635;28;20075;-68
2023/08/11 11:09:15;;;;;;;395.02;375.35;;;28.80;96.90;;;;;;5079417;28;20052;-67
2023/08/11 11:11:43;;;;;;;386.48;367.17;;;28.80;96.90;;;;;;5078591;28;20043;-67
2023/08/11 11:14:09;;;;;;;370.75;352.55;;;28.80;97.40;;;;;;5074316;28;20051;-68
2023/08/11 11:16:36;;;;;;;409.38;388.92;;;29.00;97.60;;;;;;5091234;27;20111;-67
2023/08/11 11:19:05;;;;;;;397.88;378.02;;;29.00;96.70;;;;;;5083519;28;20088;-67
2023/08/11 11:21:32;;;;;;;387.38;368.10;;;28.90;96.60;;;;;;5076325;28;20110;-67
2023/08/11 11:23:58;;;;;;;283.50;269.95;;;29.00;97.40;;;;;;5086476;28;20464;-68
2023/08/11 11:26:33;;;;;;;371.55;352.95;;;29.30;98.10;;;;;;5097108;28;20040;-67
2023/08/11 11:29:01;;;;;;;404.30;383.98;;;29.60;97.60;;;;;;5088512;28;20062;-68
2023/08/11 11:31:28;;;;;;;366.90;348.77;;;29.70;97.00;;;;;;5073990;28;20085;-67
2023/08/11 11:33:55;;;;;;;373.65;355.10;;;30.00;97.30;;;;;;5079455;28;20101;-68
2023/08/11 11:36:22;;;;;;;430.98;408.88;;;30.00;96.30;;;;;;5067698;28;20499;-68
2023/08/11 11:38:48;;;;;;;367.10;348.92;;;29.80;94.50;;;;;;5084541;28;20047;-68
2023/08/11 11:41:16;;;;;;;333.95;318.33;;;29.40;95.60;;;;;;5076979;28;20040;-68
2023/08/11 11:43:45;;;;;;;278.02;265.42;;;29.20;95.80;;;;;;5085788;28;20078;-68
2023/08/11 11:46:16;;;;;;;316.65;301.95;;;29.30;96.70;;;;;;5066803;28;20536;-68
2023/08/11 11:48:53;;;;;;;303.25;289.08;;;29.40;96.10;;;;;;5085078;28;20052;-68
2023/08/11 11:51:30;;;;;;;291.73;278.33;;;29.40;95.90;;;;;;5061973;28;20087;-67
2023/08/11 11:53:58;;;;;;;274.70;262.42;;;29.30;95.30;;;;;;5071595;28;20135;-68
2023/08/11 11:56:28;;;;;;;290.33;277.00;;;29.30;96.70;;;;;;5085075;28;20528;-68
2023/08/11 11:58:54;;;;;;;342.40;326.10;;;29.60;96.30;;;;;;5082017;28;20036;-68
2023/08/11 12:01:28;;;;;;;360.13;342.67;;;29.70;95.40;;;;;;5089063;28;20043;-68